Time;durP1;ratioP1;P1;durP2;ratioP2;P2;SDS_P1;SDS_P2;PMS_P1;PMS_P2;Temp;Humidity;BMP_temperature;BMP_pressure;BME280_temperature;BME280_humidity;BME280_pressure;Samples;Min_cycle;Max_cycle;Signal;HPM_P1;HPM_P2
2021/01/25 00:01:44;;;;;;;58.70;27.10;;;-1.40;99.90;;;;;;4992209;28;20045;-74
2021/01/25 00:04:10;;;;;;;49.13;27.17;;;-1.40;99.90;;;;;;5003345;28;20132;-73
2021/01/25 00:06:37;;;;;;;56.25;28.17;;;-1.50;99.90;;;;;;5008109;28;20060;-74
2021/01/25 00:09:04;;;;;;;59.85;31.15;;;-1.60;99.90;;;;;;5009264;28;20606;-74
2021/01/25 00:11:30;;;;;;;59.33;29.85;;;-1.50;99.90;;;;;;5024481;28;20057;-73
2021/01/25 00:13:56;;;;;;;57.63;29.63;;;-1.50;99.90;;;;;;5024885;28;20574;-74
2021/01/25 00:16:23;;;;;;;63.70;27.90;;;-1.50;99.90;;;;;;5007414;28;20048;-73
2021/01/25 00:18:50;;;;;;;69.32;32.17;;;-1.50;99.90;;;;;;5008548;28;20050;-73
2021/01/25 00:21:17;;;;;;;58.40;29.20;;;-1.50;99.90;;;;;;5006450;28;20124;-74
2021/01/25 00:23:47;;;;;;;60.08;30.38;;;-1.30;99.90;;;;;;5023920;28;20053;-74
2021/01/25 00:26:13;;;;;;;67.15;30.52;;;-1.20;99.90;;;;;;5008008;28;20235;-73
2021/01/25 00:28:40;;;;;;;58.72;29.75;;;-1.10;99.90;;;;;;5008416;28;20150;-75
2021/01/25 00:31:06;;;;;;;58.42;29.30;;;-1.00;99.90;;;;;;5007830;28;20091;-75
2021/01/25 00:33:33;;;;;;;58.13;28.77;;;-1.10;99.90;;;;;;5001918;28;20049;-74
2021/01/25 00:36:00;;;;;;;51.92;28.13;;;-1.10;99.90;;;;;;5016125;28;20731;-74
2021/01/25 00:38:26;;;;;;;47.10;26.83;;;-1.20;99.90;;;;;;5005088;28;20042;-74
2021/01/25 00:40:53;;;;;;;56.70;27.63;;;-1.30;99.90;;;;;;5004341;28;20061;-74
2021/01/25 00:43:20;;;;;;;54.08;26.95;;;-1.20;99.90;;;;;;5004730;28;20146;-75
2021/01/25 00:45:46;;;;;;;54.30;27.05;;;-1.20;99.90;;;;;;4994857;28;20155;-74
2021/01/25 00:48:13;;;;;;;58.55;25.38;;;-1.20;99.90;;;;;;5064610;28;20109;-74
2021/01/25 00:50:40;;;;;;;56.63;28.33;;;-1.30;99.90;;;;;;5064915;28;20045;-74
2021/01/25 00:53:06;;;;;;;51.40;25.67;;;-1.40;99.90;;;;;;5039576;28;20459;-74
2021/01/25 00:55:33;;;;;;;50.22;27.10;;;-1.40;99.90;;;;;;5003420;28;20046;-74
2021/01/25 00:58:01;;;;;;;52.80;26.15;;;-1.40;99.90;;;;;;5005324;28;20050;-74
2021/01/25 01:00:28;;;;;;;55.40;27.45;;;-1.40;99.90;;;;;;4976241;28;20153;-74
2021/01/25 01:02:54;;;;;;;50.25;27.30;;;-1.30;99.90;;;;;;5018308;28;20085;-75
2021/01/25 01:05:21;;;;;;;51.75;27.98;;;-1.30;99.90;;;;;;5023670;28;20149;-74
2021/01/25 01:07:47;;;;;;;52.08;30.02;;;-1.40;99.90;;;;;;5024653;28;20673;-75
2021/01/25 01:10:14;;;;;;;59.53;30.75;;;-1.40;99.90;;;;;;4988540;28;20049;-75
2021/01/25 01:12:40;;;;;;;57.80;28.92;;;-1.30;99.90;;;;;;4971940;28;20699;-75
2021/01/25 01:15:12;;;;;;;55.75;30.38;;;-1.50;99.90;;;;;;4987184;28;20112;-75
2021/01/25 01:17:40;;;;;;;56.70;28.73;;;-1.50;99.90;;;;;;5003839;28;20092;-74
2021/01/25 01:20:07;;;;;;;57.33;29.20;;;-1.50;99.90;;;;;;4988186;28;20046;-74
2021/01/25 01:22:34;;;;;;;64.50;29.10;;;-1.50;99.90;;;;;;4987563;28;20058;-74
2021/01/25 01:25:01;;;;;;;57.50;27.60;;;-1.50;99.90;;;;;;5005418;28;20065;-74
2021/01/25 01:27:27;;;;;;;53.28;27.50;;;-1.50;99.90;;;;;;5022490;28;20509;-74
2021/01/25 01:29:53;;;;;;;52.97;26.52;;;-1.60;99.90;;;;;;5024515;28;20097;-74
2021/01/25 01:32:20;;;;;;;55.13;28.10;;;-1.60;99.90;;;;;;5007032;28;20115;-75
2021/01/25 01:34:47;;;;;;;55.90;26.52;;;-1.70;99.90;;;;;;5023574;28;20508;-75
2021/01/25 01:37:14;;;;;;;57.83;28.05;;;-1.80;99.90;;;;;;5005281;28;20049;-75
2021/01/25 01:39:40;;;;;;;63.28;29.75;;;-1.80;99.90;;;;;;4988043;28;20053;-74
2021/01/25 01:42:13;;;;;;;55.40;28.60;;;-1.80;99.90;;;;;;5003067;28;20054;-74
2021/01/25 01:44:39;;;;;;;64.07;32.38;;;-1.70;99.90;;;;;;4990227;28;20069;-75
2021/01/25 01:47:06;;;;;;;67.57;30.33;;;-1.70;99.90;;;;;;5041132;28;20061;-74
2021/01/25 01:49:34;;;;;;;62.90;28.73;;;-1.60;99.90;;;;;;5057202;28;20060;-75
2021/01/25 01:52:00;;;;;;;60.95;30.92;;;-1.50;99.90;;;;;;4994432;28;20164;-74
2021/01/25 01:54:27;;;;;;;56.63;27.27;;;-1.40;99.90;;;;;;5007382;28;20372;-75
2021/01/25 01:56:54;;;;;;;62.80;28.80;;;-1.30;99.90;;;;;;5022837;28;20073;-75
2021/01/25 01:59:20;;;;;;;56.35;27.17;;;-1.50;99.90;;;;;;4990433;28;20581;-75
2021/01/25 02:01:46;;;;;;;59.17;29.13;;;-1.50;99.90;;;;;;5005367;28;20041;-75
2021/01/25 02:04:14;;;;;;;60.85;29.75;;;-1.50;99.90;;;;;;4978084;28;20053;-74
2021/01/25 02:06:41;;;;;;;57.38;28.40;;;-1.60;99.90;;;;;;5018013;28;20073;-75
2021/01/25 02:09:09;;;;;;;59.80;29.55;;;-1.40;99.90;;;;;;5023981;28;20069;-75
2021/01/25 02:11:37;;;;;;;52.25;27.15;;;-1.40;99.90;;;;;;5019467;28;20573;-75
2021/01/25 02:14:05;;;;;;;58.95;30.08;;;-1.40;99.90;;;;;;4990412;28;20054;-75
2021/01/25 02:16:40;;;;;;;57.65;28.42;;;-1.30;99.90;;;;;;5022610;28;20113;-75
2021/01/25 02:19:30;;;;;;;55.45;28.90;;;-1.30;99.90;;;;;;5007717;28;20050;-75
2021/01/25 02:22:22;;;;;;;56.42;27.30;;;-1.30;99.90;;;;;;4987263;28;20041;-74
2021/01/25 02:25:17;;;;;;;55.50;28.70;;;-1.30;99.90;;;;;;5010286;28;20053;-75
2021/01/25 02:27:44;;;;;;;48.10;25.75;;;-1.20;99.90;;;;;;4987726;28;20463;-75
2021/01/25 02:30:16;;;;;;;60.78;29.70;;;-1.30;99.90;;;;;;5009428;28;20080;-74
2021/01/25 02:32:43;;;;;;;54.60;26.52;;;-1.10;99.90;;;;;;4985362;28;20041;-75
2021/01/25 02:35:14;;;;;;;54.15;28.08;;;-1.20;99.90;;;;;;5025598;28;20053;-74
2021/01/25 02:37:41;;;;;;;49.22;27.60;;;-1.30;99.90;;;;;;5026722;28;20049;-75
2021/01/25 02:40:10;;;;;;;53.92;24.40;;;-1.30;99.90;;;;;;5025425;28;20053;-74
2021/01/25 02:42:38;;;;;;;50.97;25.13;;;-1.20;99.90;;;;;;5008971;28;20057;-75
2021/01/25 02:45:06;;;;;;;48.25;25.27;;;-1.40;99.90;;;;;;5025592;28;20080;-75
2021/01/25 02:47:35;;;;;;;56.25;27.67;;;-1.60;99.90;;;;;;5026923;28;20565;-74
2021/01/25 02:50:04;;;;;;;51.50;25.60;;;-1.60;99.90;;;;;;5009476;28;20100;-75
2021/01/25 02:52:31;;;;;;;51.55;26.20;;;-1.40;99.90;;;;;;5009373;28;20475;-75
2021/01/25 02:54:58;;;;;;;53.25;25.30;;;-1.50;99.90;;;;;;5026768;28;20072;-76
2021/01/25 02:57:25;;;;;;;52.05;26.10;;;-1.60;99.90;;;;;;5025772;28;20049;-75
2021/01/25 02:59:52;;;;;;;57.15;25.88;;;-1.50;99.90;;;;;;5009255;28;20123;-74
2021/01/25 03:02:19;;;;;;;47.72;23.50;;;-1.60;99.90;;;;;;5025262;28;20049;-74
2021/01/25 03:04:46;;;;;;;55.97;26.10;;;-1.70;99.90;;;;;;5008891;28;20813;-75
2021/01/25 03:07:12;;;;;;;44.78;23.52;;;-1.70;99.90;;;;;;4993203;28;20132;-75
2021/01/25 03:09:39;;;;;;;54.00;25.38;;;-1.80;99.90;;;;;;5009854;28;20045;-75
2021/01/25 03:12:06;;;;;;;50.70;25.00;;;-1.80;99.90;;;;;;5025093;28;20045;-75
2021/01/25 03:14:33;;;;;;;52.53;26.67;;;-1.80;99.90;;;;;;5016429;28;20488;-75
2021/01/25 03:16:59;;;;;;;50.47;24.45;;;-1.80;99.90;;;;;;5005050;28;20085;-75
2021/01/25 03:19:26;;;;;;;53.50;25.80;;;-1.80;99.90;;;;;;5006242;28;20056;-75
2021/01/25 03:21:54;;;;;;;56.53;26.80;;;-1.70;99.90;;;;;;4989169;28;20073;-74
2021/01/25 03:24:21;;;;;;;45.25;25.02;;;-1.80;99.90;;;;;;4989645;28;20099;-75
2021/01/25 03:26:48;;;;;;;57.55;25.85;;;-1.90;99.90;;;;;;4991553;28;20145;-75
2021/01/25 03:29:15;;;;;;;48.67;24.58;;;-1.80;99.90;;;;;;5007543;28;20045;-75
2021/01/25 03:31:42;;;;;;;53.50;24.77;;;-1.90;99.90;;;;;;5021428;28;20064;-75
2021/01/25 03:34:08;;;;;;;56.22;25.42;;;-1.70;99.90;;;;;;5022082;28;20057;-74
2021/01/25 03:36:35;;;;;;;53.25;25.98;;;-1.60;99.90;;;;;;5009030;28;20527;-74
2021/01/25 03:39:03;;;;;;;57.90;25.90;;;-1.70;99.90;;;;;;5025959;28;20081;-74
2021/01/25 03:41:30;;;;;;;54.60;25.67;;;-1.90;99.90;;;;;;5015081;28;20082;-73
2021/01/25 03:43:56;;;;;;;54.85;25.38;;;-1.70;99.90;;;;;;4989291;28;20600;-74
2021/01/25 03:46:23;;;;;;;55.00;25.13;;;-1.70;99.90;;;;;;5027218;28;20391;-74
2021/01/25 03:48:50;;;;;;;59.45;26.92;;;-1.70;99.90;;;;;;5049040;28;20125;-74
2021/01/25 03:51:19;;;;;;;51.67;24.52;;;-1.70;99.90;;;;;;5065054;28;20072;-74
2021/01/25 03:53:46;;;;;;;56.40;26.30;;;-1.70;99.90;;;;;;5064955;28;20052;-75
2021/01/25 03:56:13;;;;;;;61.72;23.23;;;-1.70;99.90;;;;;;5022024;28;20045;-74
2021/01/25 03:58:44;;;;;;;62.45;24.63;;;-1.70;99.90;;;;;;5025987;28;20077;-75
2021/01/25 04:01:11;;;;;;;51.03;23.85;;;-1.80;99.90;;;;;;4992433;28;20416;-75
2021/01/25 04:03:37;;;;;;;57.10;24.42;;;-1.80;99.90;;;;;;5025429;28;20049;-74
2021/01/25 04:06:04;;;;;;;52.47;23.40;;;-1.80;99.90;;;;;;5024797;28;20048;-74
2021/01/25 04:08:30;;;;;;;46.97;24.27;;;-2.10;99.90;;;;;;5026135;28;20607;-75
2021/01/25 04:10:57;;;;;;;52.70;24.60;;;-2.20;99.90;;;;;;5024266;28;20551;-75
2021/01/25 04:13:23;;;;;;;53.17;25.00;;;-2.20;99.90;;;;;;4990895;28;20146;-74
2021/01/25 04:15:50;;;;;;;58.47;24.15;;;-2.10;99.90;;;;;;5008140;28;20050;-75
2021/01/25 04:18:16;;;;;;;56.53;24.38;;;-2.20;99.90;;;;;;5026666;28;20056;-75
2021/01/25 04:20:43;;;;;;;49.75;24.52;;;-2.30;99.90;;;;;;5008945;28;20422;-74
2021/01/25 04:23:10;;;;;;;46.58;24.38;;;-2.50;99.90;;;;;;5028779;28;20132;-75
2021/01/25 04:25:36;;;;;;;53.70;25.30;;;-2.50;99.90;;;;;;5022884;28;20045;-74
2021/01/25 04:28:03;;;;;;;51.88;25.00;;;-2.50;99.90;;;;;;5023805;28;20053;-75
2021/01/25 04:30:29;;;;;;;57.60;26.05;;;-2.50;99.90;;;;;;5007882;28;20061;-75
2021/01/25 04:32:56;;;;;;;55.78;25.98;;;-2.50;99.90;;;;;;5022738;28;20099;-74
2021/01/25 04:35:23;;;;;;;58.33;25.88;;;-2.60;99.90;;;;;;5007245;28;20069;-74
2021/01/25 04:37:49;;;;;;;60.33;27.35;;;-2.60;99.90;;;;;;4992126;28;20427;-74
2021/01/25 04:40:16;;;;;;;58.30;26.88;;;-2.40;99.90;;;;;;5023705;28;20087;-74
2021/01/25 04:42:42;;;;;;;57.10;27.15;;;-2.50;99.90;;;;;;5007178;28;20080;-73
2021/01/25 04:45:11;;;;;;;62.33;26.85;;;-2.50;99.90;;;;;;5009037;28;20045;-75
2021/01/25 04:47:41;;;;;;;60.58;27.17;;;-2.50;99.90;;;;;;5035463;28;20609;-75
2021/01/25 04:50:08;;;;;;;54.13;25.70;;;-2.50;99.90;;;;;;5025370;28;20553;-75
2021/01/25 04:52:35;;;;;;;55.90;26.67;;;-2.50;99.90;;;;;;5007029;28;20057;-75
2021/01/25 04:55:03;;;;;;;73.18;28.80;;;-2.50;99.90;;;;;;5007064;28;20064;-75
2021/01/25 04:57:31;;;;;;;67.35;28.83;;;-2.50;99.90;;;;;;5026114;28;20088;-73
2021/01/25 04:59:58;;;;;;;65.55;29.63;;;-2.30;99.90;;;;;;4991486;28;20399;-75
2021/01/25 05:02:26;;;;;;;71.15;30.13;;;-2.40;99.90;;;;;;4998515;28;20147;-75
2021/01/25 05:04:53;;;;;;;64.90;29.13;;;-2.60;99.90;;;;;;5023017;28;20083;-74
2021/01/25 05:07:19;;;;;;;65.45;28.15;;;-2.60;99.90;;;;;;5022957;28;20503;-75
2021/01/25 05:09:45;;;;;;;67.45;31.08;;;-2.60;99.90;;;;;;5007570;28;20633;-75
2021/01/25 05:12:12;;;;;;;74.72;30.42;;;-2.40;99.90;;;;;;5005575;28;20077;-74
2021/01/25 05:14:43;;;;;;;65.50;28.95;;;-2.30;99.90;;;;;;5023468;28;20049;-74
2021/01/25 05:17:14;;;;;;;79.00;30.73;;;-2.30;99.90;;;;;;5003234;28;20136;-75
2021/01/25 05:19:45;;;;;;;70.70;29.80;;;-2.30;99.90;;;;;;5023399;28;20057;-74
2021/01/25 05:22:16;;;;;;;63.70;26.80;;;-2.30;99.90;;;;;;5022809;28;20076;-75
2021/01/25 05:24:55;;;;;;;70.43;28.23;;;-2.40;99.90;;;;;;5005114;28;20091;-76
2021/01/25 05:27:29;;;;;;;67.85;27.02;;;-2.50;99.90;;;;;;5005599;28;20095;-76
2021/01/25 05:30:09;;;;;;;60.97;26.50;;;-2.50;99.90;;;;;;5023647;28;20053;-75
2021/01/25 05:32:50;;;;;;;66.47;27.35;;;-2.50;99.90;;;;;;5021860;28;20411;-75
2021/01/25 05:35:38;;;;;;;62.53;27.00;;;-2.70;99.90;;;;;;5005786;28;20594;-75
2021/01/25 05:38:08;;;;;;;62.53;26.67;;;-2.60;99.90;;;;;;5007282;28;20725;-76
2021/01/25 05:40:39;;;;;;;56.47;25.13;;;-2.70;99.90;;;;;;5006032;28;20053;-75
2021/01/25 05:43:13;;;;;;;53.20;25.35;;;-2.80;99.90;;;;;;4989723;28;20101;-76
2021/01/25 05:45:40;;;;;;;56.88;28.40;;;-2.80;99.90;;;;;;5001518;28;20045;-75
2021/01/25 05:48:07;;;;;;;56.15;26.45;;;-2.90;99.90;;;;;;5005209;28;20053;-75
2021/01/25 05:50:37;;;;;;;59.80;28.60;;;-2.90;99.90;;;;;;4990015;28;20052;-76
2021/01/25 05:53:10;;;;;;;63.83;25.55;;;-2.80;99.90;;;;;;4989877;28;20045;-76
2021/01/25 05:55:38;;;;;;;69.47;28.00;;;-2.60;99.90;;;;;;5006945;28;20127;-76
2021/01/25 05:58:05;;;;;;;64.05;28.70;;;-2.60;99.90;;;;;;5009639;28;20126;-76
2021/01/25 06:00:33;;;;;;;57.80;27.05;;;-2.70;99.90;;;;;;5008885;28;20458;-76
2021/01/25 06:03:00;;;;;;;60.83;28.50;;;-2.80;99.90;;;;;;5001983;28;20058;-76
2021/01/25 06:05:33;;;;;;;59.05;29.35;;;-2.90;99.90;;;;;;4997073;28;20127;-76
2021/01/25 06:08:19;;;;;;;67.40;30.05;;;-2.90;99.90;;;;;;5026296;28;20148;-75
2021/01/25 06:11:07;;;;;;;66.57;31.75;;;-2.80;99.90;;;;;;5025689;28;20511;-75
2021/01/25 06:13:41;;;;;;;59.58;30.40;;;-2.80;99.90;;;;;;5002292;28;20152;-75
2021/01/25 06:16:11;;;;;;;77.38;33.25;;;-2.80;99.90;;;;;;4984826;28;20045;-75
2021/01/25 06:18:42;;;;;;;74.90;35.25;;;-2.80;99.90;;;;;;5026123;28;20103;-76
2021/01/25 06:21:10;;;;;;;72.88;32.58;;;-2.90;99.90;;;;;;4989917;28;20073;-76
2021/01/25 06:23:37;;;;;;;67.82;32.47;;;-2.90;99.90;;;;;;5005671;28;20053;-75
2021/01/25 06:26:04;;;;;;;70.38;30.92;;;-2.90;99.90;;;;;;4989971;28;20064;-76
2021/01/25 06:28:32;;;;;;;69.43;31.95;;;-2.70;99.90;;;;;;5018407;28;20053;-76
2021/01/25 06:31:00;;;;;;;82.00;31.60;;;-2.60;99.90;;;;;;5025951;28;20052;-76
2021/01/25 06:33:26;;;;;;;74.18;30.92;;;-2.50;99.90;;;;;;5002510;28;20045;-76
2021/01/25 06:35:53;;;;;;;66.65;27.98;;;-2.40;99.90;;;;;;5008693;28;20041;-76
2021/01/25 06:38:20;;;;;;;71.60;30.27;;;-2.50;99.90;;;;;;4994223;28;20041;-75
2021/01/25 06:40:48;;;;;;;68.32;29.25;;;-2.50;99.90;;;;;;5008954;28;20041;-75
2021/01/25 06:43:17;;;;;;;67.38;28.83;;;-2.50;99.90;;;;;;5025471;28;20053;-76
2021/01/25 06:45:46;;;;;;;72.45;29.05;;;-2.60;99.90;;;;;;5025866;28;20179;-74
2021/01/25 06:48:15;;;;;;;71.70;29.20;;;-2.60;99.90;;;;;;5018418;28;20057;-74
2021/01/25 06:50:51;;;;;;;55.25;23.33;;;-2.60;99.90;;;;;;5005911;28;20443;-74
2021/01/25 06:53:18;;;;;;;67.30;26.80;;;-2.60;99.90;;;;;;4989643;28;20058;-75
2021/01/25 06:55:44;;;;;;;66.70;26.90;;;-2.50;99.90;;;;;;4988795;28;20073;-75
2021/01/25 06:58:11;;;;;;;54.83;24.38;;;-2.40;99.90;;;;;;5006771;28;20065;-75
2021/01/25 07:00:41;;;;;;;55.60;23.67;;;-2.50;99.90;;;;;;5007520;28;20057;-75
2021/01/25 07:03:08;;;;;;;53.95;23.80;;;-2.70;99.90;;;;;;5003976;28;20049;-75
2021/01/25 07:05:38;;;;;;;51.60;22.83;;;-2.70;99.90;;;;;;5006867;28;20472;-75
2021/01/25 07:08:25;;;;;;;57.08;24.75;;;-2.60;99.90;;;;;;5004653;28;20045;-75
2021/01/25 07:10:57;;;;;;;65.28;26.00;;;-2.50;99.90;;;;;;5008057;28;20049;-76
2021/01/25 07:13:29;;;;;;;56.08;24.27;;;-2.50;99.90;;;;;;4991638;28;20053;-75
2021/01/25 07:15:56;;;;;;;55.20;25.83;;;-2.60;99.90;;;;;;5024637;28;20122;-76
2021/01/25 07:18:26;;;;;;;57.03;26.23;;;-2.50;99.90;;;;;;4999430;28;20072;-75
2021/01/25 07:20:56;;;;;;;55.55;26.02;;;-2.40;99.90;;;;;;5016562;28;20038;-75
2021/01/25 07:23:25;;;;;;;56.92;26.10;;;-2.50;99.90;;;;;;5006678;28;20678;-74
2021/01/25 07:25:58;;;;;;;65.63;29.70;;;-2.40;99.90;;;;;;4987627;28;20806;-74
2021/01/25 07:28:27;;;;;;;60.92;26.25;;;-2.50;99.90;;;;;;5009214;28;20506;-75
2021/01/25 07:30:55;;;;;;;49.05;24.20;;;-2.50;99.90;;;;;;5008785;28;20581;-74
2021/01/25 07:33:23;;;;;;;61.85;28.52;;;-2.40;99.90;;;;;;4979225;28;20034;-75
2021/01/25 07:35:51;;;;;;;88.28;36.10;;;-2.50;99.90;;;;;;5008332;28;20167;-75
2021/01/25 07:38:18;;;;;;;60.42;28.90;;;-2.60;99.90;;;;;;5026726;28;20065;-75
2021/01/25 07:40:46;;;;;;;76.05;36.28;;;-2.60;99.90;;;;;;5024911;28;20037;-75
2021/01/25 07:43:37;;;;;;;76.15;36.55;;;-2.60;99.90;;;;;;4990995;28;20046;-75
2021/01/25 07:46:06;;;;;;;64.75;31.95;;;-2.60;99.90;;;;;;5020095;28;20533;-75
2021/01/25 07:48:33;;;;;;;79.50;35.80;;;-2.50;99.90;;;;;;5065193;28;20059;-75
2021/01/25 07:51:00;;;;;;;107.60;48.60;;;-2.50;99.90;;;;;;5066911;28;20633;-75
2021/01/25 07:53:34;;;;;;;123.20;40.33;;;-2.50;99.90;;;;;;5032110;28;20094;-75
2021/01/25 07:56:01;;;;;;;70.53;35.70;;;-2.60;99.90;;;;;;5047078;28;20045;-76
2021/01/25 07:58:27;;;;;;;81.68;42.88;;;-2.60;99.90;;;;;;4995132;28;20300;-74
2021/01/25 08:00:54;;;;;;;87.30;46.75;;;-2.50;99.90;;;;;;5024106;28;20048;-75
2021/01/25 08:03:30;;;;;;;83.85;39.92;;;-2.40;99.90;;;;;;5008101;28;20138;-74
2021/01/25 08:06:04;;;;;;;71.07;38.35;;;-2.30;99.90;;;;;;5005791;28;20535;-74
2021/01/25 08:08:32;;;;;;;71.47;41.37;;;-2.20;99.90;;;;;;5009106;28;20095;-74
2021/01/25 08:10:59;;;;;;;72.13;40.58;;;-2.10;99.90;;;;;;5005896;28;20358;-74
2021/01/25 08:13:39;;;;;;;87.22;48.60;;;-1.90;99.90;;;;;;5006098;28;20045;-75
2021/01/25 08:16:19;;;;;;;81.47;47.35;;;-2.00;99.90;;;;;;5023707;28;20515;-74
2021/01/25 08:18:51;;;;;;;60.65;37.15;;;-1.80;99.90;;;;;;4998708;28;20045;-74
2021/01/25 08:21:26;;;;;;;61.35;37.38;;;-1.60;99.90;;;;;;5005016;28;20046;-75
2021/01/25 08:23:55;;;;;;;52.45;33.33;;;-1.60;99.90;;;;;;4987432;28;20061;-75
2021/01/25 08:26:24;;;;;;;52.88;32.53;;;-1.60;99.90;;;;;;5004552;28;20045;-74
2021/01/25 08:29:05;;;;;;;52.47;31.42;;;-1.60;99.90;;;;;;4994836;28;20061;-74
2021/01/25 08:31:41;;;;;;;53.33;31.13;;;-1.50;99.90;;;;;;5005895;28;20050;-73
2021/01/25 08:34:29;;;;;;;53.33;32.05;;;-1.30;99.90;;;;;;5025529;28;20259;-72
2021/01/25 08:37:23;;;;;;;65.15;36.28;;;-1.30;99.90;;;;;;5023769;28;20049;-72
2021/01/25 08:39:49;;;;;;;65.38;39.47;;;-1.20;99.90;;;;;;5025628;28;20053;-72
2021/01/25 08:42:19;;;;;;;62.40;37.17;;;-1.00;99.90;;;;;;5023656;28;20124;-72
2021/01/25 08:44:53;;;;;;;46.60;32.95;;;-0.90;99.90;;;;;;5007620;28;20056;-72
2021/01/25 08:47:31;;;;;;;50.15;30.40;;;-0.70;99.90;;;;;;5024105;28;20049;-73
2021/01/25 08:49:59;;;;;;;41.67;28.10;;;-0.60;99.90;;;;;;5019099;28;20516;-72
2021/01/25 08:52:40;;;;;;;35.78;27.45;;;-0.40;99.90;;;;;;5017212;28;20084;-73
2021/01/25 08:55:10;;;;;;;43.70;28.63;;;-0.20;99.90;;;;;;5004043;28;20045;-73
2021/01/25 08:57:42;;;;;;;42.95;30.20;;;-0.10;99.90;;;;;;4987443;28;20566;-73
2021/01/25 09:00:18;;;;;;;45.28;28.60;;;0.20;99.90;;;;;;5004271;28;20038;-73
2021/01/25 09:02:47;;;;;;;34.08;26.23;;;0.60;99.90;;;;;;5007166;28;20107;-73
2021/01/25 09:05:14;;;;;;;39.00;27.60;;;0.60;99.90;;;;;;5024321;28;20049;-73
2021/01/25 09:07:41;;;;;;;34.67;27.95;;;0.50;99.90;;;;;;5023419;28;20690;-74
2021/01/25 09:10:08;;;;;;;31.63;24.55;;;0.70;99.90;;;;;;5023815;28;20057;-73
2021/01/25 09:12:36;;;;;;;35.47;28.17;;;1.10;99.90;;;;;;5004669;28;20144;-73
2021/01/25 09:15:08;;;;;;;39.15;28.50;;;1.40;99.90;;;;;;5003213;28;20049;-72
2021/01/25 09:17:36;;;;;;;34.13;27.77;;;1.60;99.90;;;;;;5004718;28;20070;-74
2021/01/25 09:20:05;;;;;;;34.13;30.02;;;1.60;99.90;;;;;;5019086;28;20432;-73
2021/01/25 09:22:32;;;;;;;35.72;28.70;;;1.30;99.90;;;;;;5041160;28;20063;-73
2021/01/25 09:24:59;;;;;;;29.83;26.58;;;1.20;99.90;;;;;;5040919;28;20048;-72
2021/01/25 09:27:26;;;;;;;32.15;27.75;;;1.20;99.90;;;;;;5044509;28;20110;-73
2021/01/25 09:29:52;;;;;;;37.13;28.02;;;1.30;99.90;;;;;;5026812;28;20102;-72
2021/01/25 09:32:19;;;;;;;39.00;29.08;;;1.20;99.90;;;;;;5039806;28;20122;-72
2021/01/25 09:34:48;;;;;;;38.10;29.40;;;1.10;99.90;;;;;;5045397;28;20049;-72
2021/01/25 09:37:14;;;;;;;34.72;29.10;;;1.10;99.90;;;;;;5029719;28;20132;-72
2021/01/25 09:39:41;;;;;;;36.75;28.63;;;1.20;99.90;;;;;;5030278;28;20455;-72
2021/01/25 09:42:08;;;;;;;37.28;29.95;;;1.10;99.90;;;;;;5048004;28;20065;-72
2021/01/25 09:44:36;;;;;;;37.28;28.73;;;0.90;99.90;;;;;;5031741;28;20462;-72
2021/01/25 09:47:04;;;;;;;38.35;28.73;;;1.00;99.90;;;;;;5048426;28;20138;-72
2021/01/25 09:49:31;;;;;;;33.13;27.30;;;1.00;99.90;;;;;;5047638;28;20056;-72
2021/01/25 09:51:59;;;;;;;38.70;29.10;;;1.10;99.90;;;;;;5028946;28;20056;-72
2021/01/25 09:54:26;;;;;;;32.30;28.23;;;1.30;99.90;;;;;;5045782;28;20447;-72
2021/01/25 09:56:52;;;;;;;36.15;27.33;;;1.40;99.90;;;;;;5008990;28;20053;-73
2021/01/25 09:59:19;;;;;;;38.45;30.83;;;1.40;99.90;;;;;;5048276;28;20083;-73
2021/01/25 10:01:45;;;;;;;32.95;29.05;;;1.50;99.90;;;;;;5045583;28;20415;-72
2021/01/25 10:04:13;;;;;;;38.22;28.95;;;1.60;99.90;;;;;;5029413;28;20406;-72
2021/01/25 10:06:40;;;;;;;35.35;28.23;;;1.80;99.90;;;;;;5047597;28;20060;-72
2021/01/25 10:09:07;;;;;;;33.95;28.05;;;2.10;99.90;;;;;;5047434;28;20060;-72
2021/01/25 10:11:33;;;;;;;33.75;27.25;;;2.20;99.90;;;;;;5029636;28;20056;-73
2021/01/25 10:14:01;;;;;;;37.00;29.98;;;2.20;99.90;;;;;;5028696;28;20037;-73
2021/01/25 10:16:27;;;;;;;31.83;28.48;;;2.50;99.90;;;;;;5046192;28;20068;-73
2021/01/25 10:18:54;;;;;;;36.35;27.67;;;2.40;99.90;;;;;;5045354;28;20470;-73
2021/01/25 10:21:21;;;;;;;35.63;29.27;;;2.50;99.90;;;;;;5045319;28;20087;-73
2021/01/25 10:23:48;;;;;;;32.75;29.25;;;3.00;99.90;;;;;;5044688;28;20119;-73
2021/01/25 10:26:17;;;;;;;35.05;30.30;;;3.10;99.90;;;;;;5048060;28;20055;-72
2021/01/25 10:28:44;;;;;;;29.75;26.92;;;3.30;99.90;;;;;;5045989;28;20263;-73
2021/01/25 10:31:10;;;;;;;29.80;26.70;;;3.40;99.90;;;;;;5033318;28;20052;-73
2021/01/25 10:33:37;;;;;;;31.27;27.98;;;3.20;99.90;;;;;;5043694;28;20140;-72
2021/01/25 10:36:04;;;;;;;31.08;27.80;;;3.10;99.90;;;;;;5046720;28;20053;-73
2021/01/25 10:38:30;;;;;;;30.35;27.30;;;3.10;99.90;;;;;;5044954;28;20414;-73
2021/01/25 10:40:57;;;;;;;31.75;28.38;;;3.20;99.90;;;;;;5028352;28;20046;-73
2021/01/25 10:43:25;;;;;;;30.98;27.88;;;3.20;99.90;;;;;;5029227;28;20048;-73
2021/01/25 10:45:52;;;;;;;31.92;28.08;;;3.30;99.90;;;;;;5046092;28;20056;-73
2021/01/25 10:48:19;;;;;;;30.58;27.52;;;3.40;99.90;;;;;;5043461;28;20064;-73
2021/01/25 10:50:46;;;;;;;31.83;28.73;;;3.50;99.90;;;;;;5044584;28;20055;-73
2021/01/25 10:53:12;;;;;;;31.52;28.27;;;3.40;99.90;;;;;;5041351;28;20052;-73
2021/01/25 10:55:39;;;;;;;32.70;29.38;;;3.20;99.90;;;;;;5045557;28;20041;-73
2021/01/25 10:58:05;;;;;;;33.42;30.10;;;3.00;99.90;;;;;;5047632;28;20464;-73
2021/01/25 11:00:32;;;;;;;31.27;28.48;;;3.10;99.90;;;;;;5047568;28;20499;-73
2021/01/25 11:02:59;;;;;;;31.45;28.40;;;2.90;99.90;;;;;;5028844;28;20057;-73
2021/01/25 11:05:26;;;;;;;34.05;30.75;;;2.90;99.90;;;;;;5036248;28;20057;-73
2021/01/25 11:07:53;;;;;;;32.90;29.63;;;2.70;99.90;;;;;;5030936;28;20049;-73
2021/01/25 11:10:25;;;;;;;33.65;30.25;;;2.60;99.90;;;;;;5045274;28;20144;-72
2021/01/25 11:12:53;;;;;;;34.85;30.60;;;2.60;99.90;;;;;;5044521;28;20080;-72
2021/01/25 11:15:21;;;;;;;31.48;28.45;;;2.70;99.90;;;;;;5044408;28;20725;-72
2021/01/25 11:17:48;;;;;;;33.00;29.58;;;2.80;99.90;;;;;;5045972;28;20057;-73
2021/01/25 11:20:16;;;;;;;30.02;27.02;;;2.90;99.90;;;;;;5045505;28;20151;-72
2021/01/25 11:22:42;;;;;;;30.10;27.08;;;3.00;99.90;;;;;;5028877;28;20049;-72
2021/01/25 11:25:10;;;;;;;38.35;30.02;;;3.10;99.90;;;;;;5020915;28;20164;-72
2021/01/25 11:27:37;;;;;;;33.50;30.13;;;3.10;99.90;;;;;;5047268;28;20132;-72
2021/01/25 11:30:05;;;;;;;34.40;30.70;;;3.10;99.90;;;;;;5029589;28;20049;-72
2021/01/25 11:32:32;;;;;;;56.40;39.33;;;3.30;99.90;;;;;;5044613;28;20041;-72
2021/01/25 11:34:59;;;;;;;36.90;32.95;;;3.30;99.90;;;;;;5045090;28;20057;-73
2021/01/25 11:37:25;;;;;;;36.47;32.65;;;3.60;99.90;;;;;;5043600;28;20134;-72
2021/01/25 11:39:52;;;;;;;33.45;29.90;;;3.60;99.90;;;;;;5040488;28;20168;-71
2021/01/25 11:42:18;;;;;;;33.13;29.75;;;3.60;99.90;;;;;;5018677;28;20057;-71
2021/01/25 11:44:44;;;;;;;33.40;29.90;;;3.60;99.90;;;;;;5046987;28;20037;-71
2021/01/25 11:47:11;;;;;;;33.25;29.92;;;3.70;99.90;;;;;;5043421;28;20052;-72
2021/01/25 11:49:37;;;;;;;33.53;28.90;;;3.70;99.90;;;;;;5029007;28;20380;-71
2021/01/25 11:52:04;;;;;;;34.92;31.27;;;3.70;99.90;;;;;;5045365;28;20065;-71
2021/01/25 11:54:33;;;;;;;31.20;28.20;;;3.30;99.90;;;;;;5045681;28;20057;-71
2021/01/25 11:56:59;;;;;;;32.65;29.45;;;3.20;99.90;;;;;;5011627;28;20053;-72
2021/01/25 11:59:26;;;;;;;34.92;31.27;;;3.10;99.90;;;;;;5029138;28;20508;-70
2021/01/25 12:01:53;;;;;;;32.05;28.90;;;3.10;99.90;;;;;;5045451;28;20110;-71
2021/01/25 12:04:20;;;;;;;38.35;34.67;;;2.90;99.90;;;;;;5027792;28;20040;-72
2021/01/25 12:06:51;;;;;;;35.17;31.55;;;2.90;99.90;;;;;;5043118;28;20060;-70
2021/01/25 12:09:17;;;;;;;33.22;29.20;;;2.90;99.90;;;;;;5028023;28;20464;-71
2021/01/25 12:11:44;;;;;;;32.90;29.50;;;2.80;99.90;;;;;;5044523;28;20441;-71
2021/01/25 12:14:10;;;;;;;35.63;31.73;;;2.80;99.90;;;;;;5044237;28;20118;-72
2021/01/25 12:16:38;;;;;;;33.63;30.08;;;2.70;99.90;;;;;;5026376;28;20056;-71
2021/01/25 12:19:05;;;;;;;33.60;30.10;;;2.30;99.90;;;;;;5043797;28;20146;-71
2021/01/25 12:21:31;;;;;;;37.72;31.88;;;2.40;99.90;;;;;;5042766;28;20048;-71
2021/01/25 12:23:58;;;;;;;35.30;29.75;;;2.60;99.90;;;;;;5025483;28;20057;-72
2021/01/25 12:26:24;;;;;;;33.67;30.17;;;2.70;99.90;;;;;;5037241;28;20537;-72
2021/01/25 12:28:51;;;;;;;33.70;30.15;;;2.60;99.90;;;;;;5044408;28;20555;-71
2021/01/25 12:31:18;;;;;;;39.78;31.08;;;2.80;99.90;;;;;;5026991;28;20415;-71
2021/01/25 12:33:44;;;;;;;37.17;30.63;;;3.10;99.90;;;;;;5044551;28;20095;-71
2021/01/25 12:36:11;;;;;;;30.60;27.38;;;3.40;99.90;;;;;;5043544;28;20503;-72
2021/01/25 12:38:38;;;;;;;31.73;28.27;;;3.70;99.90;;;;;;5045388;28;20072;-71